Archbold, Ohio
Current Conditions -  °F | °C
As of 11:15 AM on Monday 26 Jan 2015 (Local Time) from KUSE Reporting Station
Clear Clear  
Wind Chill:   Ceiling: Unl
Heat Index: 16°   Visibility: 10mi
Dew Point:   Wind: 8mph
Humidity: 73%   Direction: 30°NNE
Pressure: 29.94"   Gusts: NA
Location:  41.52°N, 84.31°W
Report Text: KUSE 261615Z AUTO 03007KT 10SM CLR M09/M13 A2994 RMK AO2
Loading
Personal Weather Stations






























Interactive Weather Map New forecast layout! Learn more

10-Day Weather Forecast

Advertisements
Track Severe Weather on mobile